sensor_id;sensor_type;location;lat;lon;timestamp;temperature;humidity
439;DHT22;206;48.782;9.252;2022-09-17T00:00:40;13.00;51.50
439;DHT22;206;48.782;9.252;2022-09-17T00:03:07;13.00;51.20
439;DHT22;206;48.782;9.252;2022-09-17T00:05:35;13.00;51.60
439;DHT22;206;48.782;9.252;2022-09-17T00:08:03;13.00;50.60
439;DHT22;206;48.782;9.252;2022-09-17T00:10:30;13.00;50.20
439;DHT22;206;48.782;9.252;2022-09-17T00:12:55;13.00;50.40
439;DHT22;206;48.782;9.252;2022-09-17T00:15:21;13.00;50.00
439;DHT22;206;48.782;9.252;2022-09-17T00:17:47;13.00;50.00
439;DHT22;206;48.782;9.252;2022-09-17T00:20:17;12.90;50.10
439;DHT22;206;48.782;9.252;2022-09-17T00:22:43;12.90;50.90
439;DHT22;206;48.782;9.252;2022-09-17T00:25:08;12.90;51.10
439;DHT22;206;48.782;9.252;2022-09-17T00:27:34;12.90;50.90
439;DHT22;206;48.782;9.252;2022-09-17T00:30:00;12.90;51.10
439;DHT22;206;48.782;9.252;2022-09-17T00:32:25;12.90;50.40
439;DHT22;206;48.782;9.252;2022-09-17T00:34:51;12.80;50.40
439;DHT22;206;48.782;9.252;2022-09-17T00:37:18;12.70;50.80
439;DHT22;206;48.782;9.252;2022-09-17T00:39:44;12.70;51.00
439;DHT22;206;48.782;9.252;2022-09-17T00:42:13;12.70;51.90
439;DHT22;206;48.782;9.252;2022-09-17T00:44:46;12.70;51.00
439;DHT22;206;48.782;9.252;2022-09-17T00:47:37;12.70;52.20
439;DHT22;206;48.782;9.252;2022-09-17T00:50:09;12.70;51.80
439;DHT22;206;48.782;9.252;2022-09-17T00:52:42;12.70;51.00
439;DHT22;206;48.782;9.252;2022-09-17T00:55:24;12.70;51.00
439;DHT22;206;48.782;9.252;2022-09-17T00:57:53;12.80;51.60
439;DHT22;206;48.782;9.252;2022-09-17T01:00:20;12.90;50.90
439;DHT22;206;48.782;9.252;2022-09-17T01:02:47;12.90;50.80
439;DHT22;206;48.782;9.252;2022-09-17T01:05:13;13.00;50.00
439;DHT22;206;48.782;9.252;2022-09-17T01:08:01;13.00;49.60
439;DHT22;206;48.782;9.252;2022-09-17T01:10:34;12.90;49.90
439;DHT22;206;48.782;9.252;2022-09-17T01:16:25;12.80;51.00
439;DHT22;206;48.782;9.252;2022-09-17T01:25:01;12.70;52.30
439;DHT22;206;48.782;9.252;2022-09-17T01:33:15;12.40;52.90
439;DHT22;206;48.782;9.252;2022-09-17T01:36:16;12.40;53.60
439;DHT22;206;48.782;9.252;2022-09-17T01:39:11;12.30;54.10
439;DHT22;206;48.782;9.252;2022-09-17T01:47:16;12.40;54.00
439;DHT22;206;48.782;9.252;2022-09-17T01:49:44;12.30;53.80
439;DHT22;206;48.782;9.252;2022-09-17T01:52:12;12.30;53.80
439;DHT22;206;48.782;9.252;2022-09-17T01:54:43;12.40;54.00
439;DHT22;206;48.782;9.252;2022-09-17T01:59:58;12.50;52.80
439;DHT22;206;48.782;9.252;2022-09-17T02:02:37;12.50;52.90
439;DHT22;206;48.782;9.252;2022-09-17T02:05:19;12.60;52.70
439;DHT22;206;48.782;9.252;2022-09-17T02:08:01;12.60;53.00
439;DHT22;206;48.782;9.252;2022-09-17T02:10:35;12.70;52.50
439;DHT22;206;48.782;9.252;2022-09-17T02:13:20;12.70;52.20
439;DHT22;206;48.782;9.252;2022-09-17T02:15:54;12.80;51.80
439;DHT22;206;48.782;9.252;2022-09-17T02:18:39;12.80;51.00
439;DHT22;206;48.782;9.252;2022-09-17T02:21:39;12.80;51.00
439;DHT22;206;48.782;9.252;2022-09-17T02:26:49;12.70;51.10
439;DHT22;206;48.782;9.252;2022-09-17T02:29:40;12.70;51.40
439;DHT22;206;48.782;9.252;2022-09-17T02:32:07;12.60;51.60
439;DHT22;206;48.782;9.252;2022-09-17T02:34:33;12.60;51.60
439;DHT22;206;48.782;9.252;2022-09-17T02:36:59;12.50;52.20
439;DHT22;206;48.782;9.252;2022-09-17T02:39:25;12.50;52.20
439;DHT22;206;48.782;9.252;2022-09-17T02:42:02;12.40;52.10
439;DHT22;206;48.782;9.252;2022-09-17T02:44:52;12.30;52.40
439;DHT22;206;48.782;9.252;2022-09-17T02:56:12;12.40;52.30
439;DHT22;206;48.782;9.252;2022-09-17T02:59:26;12.40;51.80
439;DHT22;206;48.782;9.252;2022-09-17T03:04:04;12.20;52.40
439;DHT22;206;48.782;9.252;2022-09-17T03:06:35;12.30;52.40
439;DHT22;206;48.782;9.252;2022-09-17T03:09:01;12.30;52.90
439;DHT22;206;48.782;9.252;2022-09-17T03:11:26;12.30;52.80
439;DHT22;206;48.782;9.252;2022-09-17T03:13:52;12.30;51.60
439;DHT22;206;48.782;9.252;2022-09-17T03:16:18;12.30;52.50
439;DHT22;206;48.782;9.252;2022-09-17T03:18:44;12.30;52.60
439;DHT22;206;48.782;9.252;2022-09-17T03:21:09;12.30;52.00
439;DHT22;206;48.782;9.252;2022-09-17T03:23:36;12.30;52.40
439;DHT22;206;48.782;9.252;2022-09-17T03:26:02;12.20;52.10
439;DHT22;206;48.782;9.252;2022-09-17T03:28:28;12.20;52.70
439;DHT22;206;48.782;9.252;2022-09-17T03:30:53;12.20;52.90
439;DHT22;206;48.782;9.252;2022-09-17T03:33:19;12.20;52.80
439;DHT22;206;48.782;9.252;2022-09-17T03:35:45;12.20;52.80
439;DHT22;206;48.782;9.252;2022-09-17T03:38:12;12.20;52.60
439;DHT22;206;48.782;9.252;2022-09-17T03:40:38;12.20;52.80
439;DHT22;206;48.782;9.252;2022-09-17T03:43:05;12.10;52.90
439;DHT22;206;48.782;9.252;2022-09-17T03:45:30;12.20;53.20
439;DHT22;206;48.782;9.252;2022-09-17T03:47:56;12.20;53.20
439;DHT22;206;48.782;9.252;2022-09-17T03:50:22;12.30;52.90
439;DHT22;206;48.782;9.252;2022-09-17T03:52:47;12.30;52.70
439;DHT22;206;48.782;9.252;2022-09-17T03:55:14;12.30;52.50
439;DHT22;206;48.782;9.252;2022-09-17T03:57:40;12.30;51.60
439;DHT22;206;48.782;9.252;2022-09-17T04:00:07;12.30;52.20
439;DHT22;206;48.782;9.252;2022-09-17T04:02:33;12.20;52.40
439;DHT22;206;48.782;9.252;2022-09-17T04:04:58;12.20;52.50
439;DHT22;206;48.782;9.252;2022-09-17T04:07:24;12.10;53.20
439;DHT22;206;48.782;9.252;2022-09-17T04:09:50;12.10;53.20
439;DHT22;206;48.782;9.252;2022-09-17T04:12:15;12.10;53.20
439;DHT22;206;48.782;9.252;2022-09-17T04:14:41;12.10;53.00
439;DHT22;206;48.782;9.252;2022-09-17T04:17:07;12.00;52.80
439;DHT22;206;48.782;9.252;2022-09-17T04:19:32;12.00;54.30
439;DHT22;206;48.782;9.252;2022-09-17T04:21:58;11.90;54.40
439;DHT22;206;48.782;9.252;2022-09-17T04:24:24;11.90;53.40
439;DHT22;206;48.782;9.252;2022-09-17T04:26:50;11.90;53.80
439;DHT22;206;48.782;9.252;2022-09-17T04:29:15;11.90;53.90
439;DHT22;206;48.782;9.252;2022-09-17T04:31:41;11.90;53.60
439;DHT22;206;48.782;9.252;2022-09-17T04:34:06;11.90;53.60
439;DHT22;206;48.782;9.252;2022-09-17T04:36:32;11.90;53.20
439;DHT22;206;48.782;9.252;2022-09-17T04:38:57;11.90;52.50
439;DHT22;206;48.782;9.252;2022-09-17T04:41:23;11.90;52.70
439;DHT22;206;48.782;9.252;2022-09-17T04:43:49;11.90;51.80
439;DHT22;206;48.782;9.252;2022-09-17T04:46:14;11.90;51.90
439;DHT22;206;48.782;9.252;2022-09-17T04:48:41;11.90;52.60
439;DHT22;206;48.782;9.252;2022-09-17T04:51:06;11.90;52.60
439;DHT22;206;48.782;9.252;2022-09-17T04:53:32;12.00;52.60
439;DHT22;206;48.782;9.252;2022-09-17T04:55:57;12.00;51.90
439;DHT22;206;48.782;9.252;2022-09-17T04:58:23;12.00;50.50
439;DHT22;206;48.782;9.252;2022-09-17T05:00:49;12.10;50.50
439;DHT22;206;48.782;9.252;2022-09-17T05:03:14;12.00;51.00
439;DHT22;206;48.782;9.252;2022-09-17T05:05:40;12.00;50.60
439;DHT22;206;48.782;9.252;2022-09-17T05:08:06;12.00;50.80
439;DHT22;206;48.782;9.252;2022-09-17T05:10:33;12.10;50.20
439;DHT22;206;48.782;9.252;2022-09-17T05:12:59;12.10;49.90
439;DHT22;206;48.782;9.252;2022-09-17T05:15:25;12.10;50.40
439;DHT22;206;48.782;9.252;2022-09-17T05:17:51;12.20;50.20
439;DHT22;206;48.782;9.252;2022-09-17T05:20:17;12.20;49.80
439;DHT22;206;48.782;9.252;2022-09-17T05:22:44;12.30;48.20
439;DHT22;206;48.782;9.252;2022-09-17T05:25:12;12.40;47.20
439;DHT22;206;48.782;9.252;2022-09-17T05:27:38;12.40;46.60
439;DHT22;206;48.782;9.252;2022-09-17T05:30:05;12.50;47.10
439;DHT22;206;48.782;9.252;2022-09-17T05:32:30;12.50;45.90
439;DHT22;206;48.782;9.252;2022-09-17T05:34:56;12.50;45.90
439;DHT22;206;48.782;9.252;2022-09-17T05:37:22;12.50;45.90
439;DHT22;206;48.782;9.252;2022-09-17T05:39:47;12.50;45.90
439;DHT22;206;48.782;9.252;2022-09-17T05:42:13;12.50;46.10
439;DHT22;206;48.782;9.252;2022-09-17T05:44:38;12.50;46.00
439;DHT22;206;48.782;9.252;2022-09-17T05:47:04;12.60;46.00
439;DHT22;206;48.782;9.252;2022-09-17T05:49:30;12.60;45.80
439;DHT22;206;48.782;9.252;2022-09-17T05:51:55;12.60;46.10
439;DHT22;206;48.782;9.252;2022-09-17T05:54:21;12.60;46.10
439;DHT22;206;48.782;9.252;2022-09-17T05:56:46;12.60;45.70
439;DHT22;206;48.782;9.252;2022-09-17T05:59:12;12.70;46.10
439;DHT22;206;48.782;9.252;2022-09-17T06:01:39;12.80;46.20
439;DHT22;206;48.782;9.252;2022-09-17T06:04:04;12.90;44.80
439;DHT22;206;48.782;9.252;2022-09-17T06:06:30;13.00;44.00
439;DHT22;206;48.782;9.252;2022-09-17T06:08:58;13.00;43.50
439;DHT22;206;48.782;9.252;2022-09-17T06:11:24;13.20;42.10
439;DHT22;206;48.782;9.252;2022-09-17T06:13:54;13.30;42.40
439;DHT22;206;48.782;9.252;2022-09-17T06:16:20;13.30;42.60
439;DHT22;206;48.782;9.252;2022-09-17T06:18:46;13.30;41.80
439;DHT22;206;48.782;9.252;2022-09-17T06:21:12;13.30;41.70
439;DHT22;206;48.782;9.252;2022-09-17T06:23:37;13.20;41.80
439;DHT22;206;48.782;9.252;2022-09-17T06:26:04;13.10;42.40
439;DHT22;206;48.782;9.252;2022-09-17T06:28:31;13.10;43.00
439;DHT22;206;48.782;9.252;2022-09-17T06:31:05;13.10;43.40
439;DHT22;206;48.782;9.252;2022-09-17T06:33:31;13.10;44.10
439;DHT22;206;48.782;9.252;2022-09-17T06:36:04;13.10;42.80
439;DHT22;206;48.782;9.252;2022-09-17T06:38:32;13.10;43.00
439;DHT22;206;48.782;9.252;2022-09-17T06:40:59;13.10;43.20
439;DHT22;206;48.782;9.252;2022-09-17T06:43:25;13.20;42.90
439;DHT22;206;48.782;9.252;2022-09-17T06:45:55;13.10;42.50
439;DHT22;206;48.782;9.252;2022-09-17T06:48:22;13.00;43.20
439;DHT22;206;48.782;9.252;2022-09-17T06:50:48;13.00;44.40
439;DHT22;206;48.782;9.252;2022-09-17T06:53:14;13.10;43.70
439;DHT22;206;48.782;9.252;2022-09-17T06:55:40;13.10;43.00
439;DHT22;206;48.782;9.252;2022-09-17T06:58:05;13.20;42.60
439;DHT22;206;48.782;9.252;2022-09-17T07:00:31;13.20;41.60
439;DHT22;206;48.782;9.252;2022-09-17T07:02:58;13.20;41.30
439;DHT22;206;48.782;9.252;2022-09-17T07:05:24;13.10;41.30
439;DHT22;206;48.782;9.252;2022-09-17T07:07:50;13.10;41.20
439;DHT22;206;48.782;9.252;2022-09-17T07:10:16;13.10;41.20
439;DHT22;206;48.782;9.252;2022-09-17T07:12:42;13.20;41.30
439;DHT22;206;48.782;9.252;2022-09-17T07:15:08;13.10;41.60
439;DHT22;206;48.782;9.252;2022-09-17T07:17:38;13.00;41.70
439;DHT22;206;48.782;9.252;2022-09-17T07:20:06;12.70;43.30
439;DHT22;206;48.782;9.252;2022-09-17T07:22:32;12.70;44.40
439;DHT22;206;48.782;9.252;2022-09-17T07:24:58;12.70;44.30
439;DHT22;206;48.782;9.252;2022-09-17T07:27:26;12.80;45.40
439;DHT22;206;48.782;9.252;2022-09-17T07:29:52;12.80;45.60
439;DHT22;206;48.782;9.252;2022-09-17T07:32:17;12.80;46.20
439;DHT22;206;48.782;9.252;2022-09-17T07:34:43;12.80;47.00
439;DHT22;206;48.782;9.252;2022-09-17T07:37:08;12.90;47.80
439;DHT22;206;48.782;9.252;2022-09-17T07:39:34;12.80;51.00
439;DHT22;206;48.782;9.252;2022-09-17T07:42:00;12.80;53.80
439;DHT22;206;48.782;9.252;2022-09-17T07:44:25;12.80;54.10
439;DHT22;206;48.782;9.252;2022-09-17T07:46:52;12.80;55.80
439;DHT22;206;48.782;9.252;2022-09-17T07:49:17;12.90;53.40
439;DHT22;206;48.782;9.252;2022-09-17T07:51:43;13.00;54.50
439;DHT22;206;48.782;9.252;2022-09-17T07:54:09;13.00;56.00
439;DHT22;206;48.782;9.252;2022-09-17T07:56:35;13.10;56.10
439;DHT22;206;48.782;9.252;2022-09-17T07:59:02;13.10;57.60
439;DHT22;206;48.782;9.252;2022-09-17T08:01:28;13.10;56.70
439;DHT22;206;48.782;9.252;2022-09-17T08:03:54;13.10;56.10
439;DHT22;206;48.782;9.252;2022-09-17T08:06:22;13.10;58.20
439;DHT22;206;48.782;9.252;2022-09-17T08:08:48;13.10;57.70
439;DHT22;206;48.782;9.252;2022-09-17T08:11:19;13.20;56.20
439;DHT22;206;48.782;9.252;2022-09-17T08:13:49;13.30;56.30
439;DHT22;206;48.782;9.252;2022-09-17T08:16:15;13.50;54.30
439;DHT22;206;48.782;9.252;2022-09-17T08:18:42;13.50;53.40
439;DHT22;206;48.782;9.252;2022-09-17T08:21:10;13.60;50.20
439;DHT22;206;48.782;9.252;2022-09-17T08:23:37;13.60;50.30
439;DHT22;206;48.782;9.252;2022-09-17T08:26:04;13.60;50.70
439;DHT22;206;48.782;9.252;2022-09-17T08:28:31;13.70;50.20
439;DHT22;206;48.782;9.252;2022-09-17T08:31:02;13.70;48.30
439;DHT22;206;48.782;9.252;2022-09-17T08:33:36;13.70;49.50
439;DHT22;206;48.782;9.252;2022-09-17T08:36:03;13.80;49.60
439;DHT22;206;48.782;9.252;2022-09-17T08:38:30;13.90;48.00
439;DHT22;206;48.782;9.252;2022-09-17T08:43:50;14.10;47.30
439;DHT22;206;48.782;9.252;2022-09-17T08:46:19;14.20;45.70
439;DHT22;206;48.782;9.252;2022-09-17T08:49:00;14.30;47.10
439;DHT22;206;48.782;9.252;2022-09-17T08:51:45;14.40;44.30
439;DHT22;206;48.782;9.252;2022-09-17T08:59:56;15.10;39.60
439;DHT22;206;48.782;9.252;2022-09-17T09:02:47;15.00;40.40
439;DHT22;206;48.782;9.252;2022-09-17T09:05:17;15.20;38.40
439;DHT22;206;48.782;9.252;2022-09-17T09:07:51;15.50;38.10
439;DHT22;206;48.782;9.252;2022-09-17T09:10:23;15.70;36.10
439;DHT22;206;48.782;9.252;2022-09-17T09:12:53;15.80;36.60
439;DHT22;206;48.782;9.252;2022-09-17T09:18:19;15.90;33.40
439;DHT22;206;48.782;9.252;2022-09-17T09:20:49;15.70;35.00
439;DHT22;206;48.782;9.252;2022-09-17T09:26:15;15.80;35.10
439;DHT22;206;48.782;9.252;2022-09-17T09:29:09;15.50;35.00
439;DHT22;206;48.782;9.252;2022-09-17T09:34:24;15.20;35.60
439;DHT22;206;48.782;9.252;2022-09-17T09:36:50;15.30;36.70
439;DHT22;206;48.782;9.252;2022-09-17T09:39:24;15.30;35.30
439;DHT22;206;48.782;9.252;2022-09-17T09:42:25;15.20;36.60
439;DHT22;206;48.782;9.252;2022-09-17T09:44:51;15.10;34.60
439;DHT22;206;48.782;9.252;2022-09-17T09:47:29;15.00;36.00
439;DHT22;206;48.782;9.252;2022-09-17T09:50:26;14.80;36.50
439;DHT22;206;48.782;9.252;2022-09-17T09:53:11;14.80;37.80
439;DHT22;206;48.782;9.252;2022-09-17T09:56:22;14.70;38.50
439;DHT22;206;48.782;9.252;2022-09-17T09:58:45;14.80;37.70
439;DHT22;206;48.782;9.252;2022-09-17T10:01:18;15.00;37.30
439;DHT22;206;48.782;9.252;2022-09-17T10:03:49;15.00;36.50
439;DHT22;206;48.782;9.252;2022-09-17T10:06:16;15.00;35.40
439;DHT22;206;48.782;9.252;2022-09-17T10:11:23;14.90;35.20
439;DHT22;206;48.782;9.252;2022-09-17T10:13:49;15.10;35.00
439;DHT22;206;48.782;9.252;2022-09-17T10:16:24;15.20;34.50
439;DHT22;206;48.782;9.252;2022-09-17T10:19:11;15.40;33.50
439;DHT22;206;48.782;9.252;2022-09-17T10:21:40;15.40;32.60
439;DHT22;206;48.782;9.252;2022-09-17T10:24:25;15.20;32.20
439;DHT22;206;48.782;9.252;2022-09-17T10:27:00;15.00;32.80
439;DHT22;206;48.782;9.252;2022-09-17T10:29:26;15.00;33.80
439;DHT22;206;48.782;9.252;2022-09-17T10:31:56;15.10;32.20
439;DHT22;206;48.782;9.252;2022-09-17T10:34:27;15.40;31.50
439;DHT22;206;48.782;9.252;2022-09-17T10:36:54;15.70;30.00
439;DHT22;206;48.782;9.252;2022-09-17T10:41:56;16.30;28.10
439;DHT22;206;48.782;9.252;2022-09-17T10:44:27;16.50;27.00
439;DHT22;206;48.782;9.252;2022-09-17T10:46:54;16.70;26.80
439;DHT22;206;48.782;9.252;2022-09-17T10:52:26;16.80;26.90
439;DHT22;206;48.782;9.252;2022-09-17T10:55:21;16.80;26.20
439;DHT22;206;48.782;9.252;2022-09-17T11:09:03;18.10;22.50
439;DHT22;206;48.782;9.252;2022-09-17T11:17:16;17.60;22.70
439;DHT22;206;48.782;9.252;2022-09-17T11:20:00;17.50;22.20
439;DHT22;206;48.782;9.252;2022-09-17T11:23:04;17.40;22.10
439;DHT22;206;48.782;9.252;2022-09-17T11:25:46;17.60;22.20
439;DHT22;206;48.782;9.252;2022-09-17T11:36:02;18.00;21.90
439;DHT22;206;48.782;9.252;2022-09-17T11:38:40;18.20;21.40
439;DHT22;206;48.782;9.252;2022-09-17T11:41:20;18.30;20.40
439;DHT22;206;48.782;9.252;2022-09-17T11:44:09;18.50;20.00
439;DHT22;206;48.782;9.252;2022-09-17T11:46:46;18.40;19.30
439;DHT22;206;48.782;9.252;2022-09-17T11:52:26;18.30;19.00
439;DHT22;206;48.782;9.252;2022-09-17T11:57:43;18.40;20.00
439;DHT22;206;48.782;9.252;2022-09-17T12:00:15;18.60;19.30
439;DHT22;206;48.782;9.252;2022-09-17T12:05:30;18.90;18.20
439;DHT22;206;48.782;9.252;2022-09-17T12:08:17;18.80;18.10
439;DHT22;206;48.782;9.252;2022-09-17T12:13:55;18.20;20.90
439;DHT22;206;48.782;9.252;2022-09-17T12:16:25;17.90;19.90
439;DHT22;206;48.782;9.252;2022-09-17T12:21:38;17.00;21.10
439;DHT22;206;48.782;9.252;2022-09-17T12:29:47;16.70;29.30
439;DHT22;206;48.782;9.252;2022-09-17T12:34:50;16.70;29.00
439;DHT22;206;48.782;9.252;2022-09-17T12:45:59;15.90;39.00
439;DHT22;206;48.782;9.252;2022-09-17T12:48:47;16.00;36.70
439;DHT22;206;48.782;9.252;2022-09-17T12:54:09;16.20;35.60
439;DHT22;206;48.782;9.252;2022-09-17T12:59:15;16.10;35.00
439;DHT22;206;48.782;9.252;2022-09-17T13:02:03;16.10;33.80
439;DHT22;206;48.782;9.252;2022-09-17T13:04:38;16.10;33.80
439;DHT22;206;48.782;9.252;2022-09-17T13:15:18;16.00;29.30
439;DHT22;206;48.782;9.252;2022-09-17T13:18:08;15.80;30.70
439;DHT22;206;48.782;9.252;2022-09-17T13:23:38;15.60;34.10
439;DHT22;206;48.782;9.252;2022-09-17T13:26:06;15.50;34.30
439;DHT22;206;48.782;9.252;2022-09-17T13:28:37;15.40;35.00
439;DHT22;206;48.782;9.252;2022-09-17T13:31:03;15.40;33.50
439;DHT22;206;48.782;9.252;2022-09-17T13:36:40;15.30;33.40
439;DHT22;206;48.782;9.252;2022-09-17T13:39:10;15.20;34.20
439;DHT22;206;48.782;9.252;2022-09-17T13:41:39;15.20;35.40
439;DHT22;206;48.782;9.252;2022-09-17T13:44:08;15.20;36.00
439;DHT22;206;48.782;9.252;2022-09-17T13:46:35;15.20;37.00
439;DHT22;206;48.782;9.252;2022-09-17T13:49:10;15.20;36.60
439;DHT22;206;48.782;9.252;2022-09-17T13:54:04;15.40;35.40
439;DHT22;206;48.782;9.252;2022-09-17T13:56:43;15.50;33.90
439;DHT22;206;48.782;9.252;2022-09-17T13:59:24;15.40;34.80
439;DHT22;206;48.782;9.252;2022-09-17T14:07:31;15.70;34.20
439;DHT22;206;48.782;9.252;2022-09-17T14:21:03;16.30;30.60
439;DHT22;206;48.782;9.252;2022-09-17T14:23:33;16.40;31.20
439;DHT22;206;48.782;9.252;2022-09-17T14:26:01;16.50;30.40
439;DHT22;206;48.782;9.252;2022-09-17T14:29:14;16.70;30.40
439;DHT22;206;48.782;9.252;2022-09-17T14:31:44;16.70;30.00
439;DHT22;206;48.782;9.252;2022-09-17T14:34:18;16.70;29.70
439;DHT22;206;48.782;9.252;2022-09-17T14:36:44;16.80;29.20
439;DHT22;206;48.782;9.252;2022-09-17T14:39:19;16.90;29.00
439;DHT22;206;48.782;9.252;2022-09-17T14:41:46;17.10;28.60
439;DHT22;206;48.782;9.252;2022-09-17T14:44:13;17.30;27.90
439;DHT22;206;48.782;9.252;2022-09-17T14:49:18;17.30;27.00
439;DHT22;206;48.782;9.252;2022-09-17T14:51:44;17.20;27.00
439;DHT22;206;48.782;9.252;2022-09-17T14:54:24;17.10;26.90
439;DHT22;206;48.782;9.252;2022-09-17T14:59:36;17.20;26.60
439;DHT22;206;48.782;9.252;2022-09-17T15:04:46;17.00;26.70
439;DHT22;206;48.782;9.252;2022-09-17T15:07:12;16.90;27.20
439;DHT22;206;48.782;9.252;2022-09-17T15:09:38;16.90;28.00
439;DHT22;206;48.782;9.252;2022-09-17T15:12:04;17.00;28.00
439;DHT22;206;48.782;9.252;2022-09-17T15:14:33;17.00;28.00
439;DHT22;206;48.782;9.252;2022-09-17T15:17:02;17.10;27.30
439;DHT22;206;48.782;9.252;2022-09-17T15:19:32;17.00;27.00
439;DHT22;206;48.782;9.252;2022-09-17T15:25:05;16.90;26.30
439;DHT22;206;48.782;9.252;2022-09-17T15:27:45;16.80;27.10
439;DHT22;206;48.782;9.252;2022-09-17T15:30:17;16.70;27.60
439;DHT22;206;48.782;9.252;2022-09-17T15:32:52;16.50;28.00
439;DHT22;206;48.782;9.252;2022-09-17T15:35:31;16.40;28.20
439;DHT22;206;48.782;9.252;2022-09-17T15:37:58;16.30;28.80
439;DHT22;206;48.782;9.252;2022-09-17T15:40:30;16.20;28.30
439;DHT22;206;48.782;9.252;2022-09-17T15:45:43;16.10;28.10
439;DHT22;206;48.782;9.252;2022-09-17T15:50:59;16.10;28.20
439;DHT22;206;48.782;9.252;2022-09-17T15:53:30;16.10;27.90
439;DHT22;206;48.782;9.252;2022-09-17T15:56:03;16.10;28.00
439;DHT22;206;48.782;9.252;2022-09-17T16:11:12;16.30;27.80
439;DHT22;206;48.782;9.252;2022-09-17T16:13:38;16.10;28.40
439;DHT22;206;48.782;9.252;2022-09-17T16:16:03;15.90;28.60
439;DHT22;206;48.782;9.252;2022-09-17T16:18:29;15.90;29.40
439;DHT22;206;48.782;9.252;2022-09-17T16:20:55;15.80;29.00
439;DHT22;206;48.782;9.252;2022-09-17T16:23:21;15.70;28.60
439;DHT22;206;48.782;9.252;2022-09-17T16:25:47;15.60;29.00
439;DHT22;206;48.782;9.252;2022-09-17T16:28:15;15.60;29.00
439;DHT22;206;48.782;9.252;2022-09-17T16:30:46;15.70;29.00
439;DHT22;206;48.782;9.252;2022-09-17T16:33:14;15.80;28.50
439;DHT22;206;48.782;9.252;2022-09-17T16:35:40;15.90;28.50
439;DHT22;206;48.782;9.252;2022-09-17T16:38:06;16.00;28.00
439;DHT22;206;48.782;9.252;2022-09-17T16:40:32;16.00;27.80
439;DHT22;206;48.782;9.252;2022-09-17T16:43:02;16.10;27.50
439;DHT22;206;48.782;9.252;2022-09-17T16:45:28;16.10;27.60
439;DHT22;206;48.782;9.252;2022-09-17T16:47:54;16.10;27.40
439;DHT22;206;48.782;9.252;2022-09-17T16:50:20;16.10;27.60
439;DHT22;206;48.782;9.252;2022-09-17T16:52:45;16.10;27.80
439;DHT22;206;48.782;9.252;2022-09-17T16:55:13;16.00;27.80
439;DHT22;206;48.782;9.252;2022-09-17T16:57:39;15.90;27.80
439;DHT22;206;48.782;9.252;2022-09-17T17:00:07;15.90;28.20
439;DHT22;206;48.782;9.252;2022-09-17T17:02:36;15.90;28.50
439;DHT22;206;48.782;9.252;2022-09-17T17:05:02;15.90;28.60
439;DHT22;206;48.782;9.252;2022-09-17T17:07:28;15.80;28.90
439;DHT22;206;48.782;9.252;2022-09-17T17:09:56;15.80;29.10
439;DHT22;206;48.782;9.252;2022-09-17T17:12:23;15.70;29.10
439;DHT22;206;48.782;9.252;2022-09-17T17:14:49;15.70;29.00
439;DHT22;206;48.782;9.252;2022-09-17T17:17:17;15.60;29.40
439;DHT22;206;48.782;9.252;2022-09-17T17:19:43;15.60;36.40
439;DHT22;206;48.782;9.252;2022-09-17T17:22:10;15.10;39.10
439;DHT22;206;48.782;9.252;2022-09-17T17:24:35;14.80;43.60
439;DHT22;206;48.782;9.252;2022-09-17T17:27:01;14.60;45.90
439;DHT22;206;48.782;9.252;2022-09-17T17:29:28;14.50;48.80
439;DHT22;206;48.782;9.252;2022-09-17T17:31:54;14.30;51.40
439;DHT22;206;48.782;9.252;2022-09-17T17:34:19;14.10;48.80
439;DHT22;206;48.782;9.252;2022-09-17T17:36:48;14.00;53.10
439;DHT22;206;48.782;9.252;2022-09-17T17:39:14;14.00;52.40
439;DHT22;206;48.782;9.252;2022-09-17T17:41:40;13.90;56.30
439;DHT22;206;48.782;9.252;2022-09-17T17:44:05;13.90;57.70
439;DHT22;206;48.782;9.252;2022-09-17T17:46:31;13.80;55.50
439;DHT22;206;48.782;9.252;2022-09-17T17:48:57;13.60;55.20
439;DHT22;206;48.782;9.252;2022-09-17T17:51:22;13.40;55.00
439;DHT22;206;48.782;9.252;2022-09-17T17:53:48;13.30;56.30
439;DHT22;206;48.782;9.252;2022-09-17T17:56:15;13.30;57.90
439;DHT22;206;48.782;9.252;2022-09-17T17:58:41;13.30;58.70
439;DHT22;206;48.782;9.252;2022-09-17T18:01:19;13.40;59.40
439;DHT22;206;48.782;9.252;2022-09-17T18:03:45;13.50;60.50
439;DHT22;206;48.782;9.252;2022-09-17T18:06:11;13.60;60.90
439;DHT22;206;48.782;9.252;2022-09-17T18:08:39;13.70;59.00
439;DHT22;206;48.782;9.252;2022-09-17T18:11:06;13.80;58.40
439;DHT22;206;48.782;9.252;2022-09-17T18:13:36;13.90;60.70
439;DHT22;206;48.782;9.252;2022-09-17T18:16:03;13.80;58.10
439;DHT22;206;48.782;9.252;2022-09-17T18:18:34;13.90;60.00
439;DHT22;206;48.782;9.252;2022-09-17T18:21:03;13.90;56.80
439;DHT22;206;48.782;9.252;2022-09-17T18:23:32;13.90;55.20
439;DHT22;206;48.782;9.252;2022-09-17T18:25:59;13.90;54.10
439;DHT22;206;48.782;9.252;2022-09-17T18:28:26;13.90;53.30
439;DHT22;206;48.782;9.252;2022-09-17T18:30:52;13.90;54.00
439;DHT22;206;48.782;9.252;2022-09-17T18:33:20;13.90;54.60
439;DHT22;206;48.782;9.252;2022-09-17T18:35:46;13.90;54.40
439;DHT22;206;48.782;9.252;2022-09-17T18:38:13;13.80;55.60
439;DHT22;206;48.782;9.252;2022-09-17T18:40:39;13.70;56.60
439;DHT22;206;48.782;9.252;2022-09-17T18:43:06;13.70;56.60
439;DHT22;206;48.782;9.252;2022-09-17T18:45:31;13.70;56.60
439;DHT22;206;48.782;9.252;2022-09-17T18:47:57;13.70;56.90
439;DHT22;206;48.782;9.252;2022-09-17T18:50:22;13.70;57.10
439;DHT22;206;48.782;9.252;2022-09-17T18:52:48;13.70;56.60
439;DHT22;206;48.782;9.252;2022-09-17T18:55:14;13.70;56.60
439;DHT22;206;48.782;9.252;2022-09-17T18:57:40;13.70;56.00
439;DHT22;206;48.782;9.252;2022-09-17T19:00:06;13.70;56.50
439;DHT22;206;48.782;9.252;2022-09-17T19:02:34;13.60;57.30
439;DHT22;206;48.782;9.252;2022-09-17T19:04:59;13.70;58.00
439;DHT22;206;48.782;9.252;2022-09-17T19:07:25;13.60;59.00
439;DHT22;206;48.782;9.252;2022-09-17T19:09:51;13.60;58.60
439;DHT22;206;48.782;9.252;2022-09-17T19:12:16;13.50;58.90
439;DHT22;206;48.782;9.252;2022-09-17T19:14:42;13.40;58.20
439;DHT22;206;48.782;9.252;2022-09-17T19:17:07;13.30;60.60
439;DHT22;206;48.782;9.252;2022-09-17T19:19:33;13.20;60.10
439;DHT22;206;48.782;9.252;2022-09-17T19:21:59;13.20;59.10
439;DHT22;206;48.782;9.252;2022-09-17T19:24:24;13.10;56.10
439;DHT22;206;48.782;9.252;2022-09-17T19:26:50;12.90;50.70
439;DHT22;206;48.782;9.252;2022-09-17T19:29:15;12.80;49.50
439;DHT22;206;48.782;9.252;2022-09-17T19:31:41;12.70;48.30
439;DHT22;206;48.782;9.252;2022-09-17T19:34:07;12.60;43.60
439;DHT22;206;48.782;9.252;2022-09-17T19:36:32;12.50;41.70
439;DHT22;206;48.782;9.252;2022-09-17T19:38:58;12.50;42.50
439;DHT22;206;48.782;9.252;2022-09-17T19:41:24;12.50;44.30
439;DHT22;206;48.782;9.252;2022-09-17T19:43:51;12.50;44.40
439;DHT22;206;48.782;9.252;2022-09-17T19:46:22;12.50;45.70
439;DHT22;206;48.782;9.252;2022-09-17T19:48:53;12.40;46.80
439;DHT22;206;48.782;9.252;2022-09-17T19:51:20;12.40;48.10
439;DHT22;206;48.782;9.252;2022-09-17T19:53:46;12.40;50.00
439;DHT22;206;48.782;9.252;2022-09-17T19:56:13;12.40;47.90